Apj Shirin — 3EVS6 — position and weather

sailwx.info

Track history (hours):
 
Tides and Currents Weather Stations Pressure Air Temp Water Temp Dewpoint Dewpoint Depression Visibility Wind Speed Wind Dir Waves Ship Positions

Apj Shirin

Last reported at 2016-Aug-25 00:33 UTC. Time now 2016-Aug-25 21:58 UTC.
Position N 33°45' W 009°03'.

Length 189 m; draft 12.6 m.

Type: Cargo ship. MMSI: 373223000.

Date/timePositionNaut miles runAvg speedWind from/ knotsBaromVisibWave heightAir tempDewpointWater temp
2016-Aug-25 00:33N 33°45' W 009°03'2712.9
2016-Aug-24 22:26N 34°04' W 008°40'1212.6
2016-Aug-24 21:29N 34°13' W 008°29'2412.5
2016-Aug-24 19:33N 34°30' W 008°08'6912.6
2016-Aug-24 14:06N 35°17' W 007°07'10210.7
2016-Aug-24 04:34N 36°03' W 005°15'  
2016-Aug-21 22:20N 37°43' E 008°56'8212.2
2016-Aug-21 15:33N 37°34' E 010°40'3812.7
2016-Aug-21 12:32N 37°21' E 011°25'1212.3
2016-Aug-21 11:33N 37°15' E 011°38'1212.4
2016-Aug-21 10:33N 37°08' E 011°52'1312.7
2016-Aug-21 09:33N 37°02' E 012°06'1313.2
2016-Aug-21 08:33N 36°58' E 012°21'1313.3
2016-Aug-21 07:33N 36°54' E 012°37'1313.5
2016-Aug-21 06:33N 36°49' E 012°53'1313.1
2016-Aug-21 05:33N 36°45' E 013°08'1312.9
2016-Aug-21 04:33N 36°41' E 013°24'1312.8
2016-Aug-21 03:33N 36°36' E 013°39'1312.7
2016-Aug-21 02:33N 36°32' E 013°54'1312.8
2016-Aug-21 01:33N 36°30' E 014°09'1313.0
2016-Aug-21 00:33N 36°28' E 014°25'1313.3
2016-Aug-20 23:33N 36°27' E 014°42'1413.5
2016-Aug-20 22:33N 36°27' E 014°59'1313.0
2016-Aug-20 21:33N 36°26' E 015°15'3912.9
2016-Aug-20 18:33N 36°23' E 016°03'1413.1
2016-Aug-20 17:28N 36°22' E 016°20'39911.4
2016-Aug-19 06:30N 37°40' E 024°31'14913.0
2016-Aug-18 19:03N 39°56' E 025°49'714.0
2016-Aug-18 18:33N 39°60' E 025°56'14710.3
2016-Aug-18 04:15N 40°57' E 028°54'308 7.0
2016-Aug-16 08:05N 43°50' E 034°38'1013.0
2016-Aug-16 07:19N 43°56' E 034°50'8612.5
2016-Aug-16 00:27N 44°48' E 036°25'2010.3
2016-Aug-15 22:33N 45°07' E 036°33'0 0.3
2016-Aug-15 21:26N 45°07' E 036°33'0 0.0
2016-Aug-15 16:26N 45°07' E 036°33'0 0.0
2016-Aug-15 15:26N 45°07' E 036°33'0 0.0
2016-Aug-15 14:32N 45°07' E 036°33'0 0.0
2016-Aug-15 13:32N 45°07' E 036°33'0 0.0
2016-Aug-15 12:29N 45°07' E 036°33'0 0.0
2016-Aug-15 11:23N 45°07' E 036°33'0 0.0
2016-Aug-15 10:32N 45°07' E 036°33'0 0.0
2016-Aug-15 09:14N 45°07' E 036°33'0 0.0
2016-Aug-15 07:08N 45°07' E 036°33'0 0.0
2016-Aug-15 06:32N 45°07' E 036°33'0 0.0
2016-Aug-15 04:32N 45°07' E 036°33'0 0.0
2016-Aug-15 03:29N 45°07' E 036°33'0 0.0
2016-Aug-15 02:32N 45°07' E 036°33'  
Track history (hours):
 
Tides and Currents Weather Stations Pressure Air Temp Water Temp Dewpoint Dewpoint Depression Visibility Wind Speed Wind Dir Waves Ship Positions

Apj Shirin

Last reported at 2016-Aug-25 00:33 UTC. Time now 2016-Aug-25 21:58 UTC.
Position N 33°45' W 009°03'.

Length 189 m; draft 12.6 m.

Type: Cargo ship. MMSI: 373223000.

Date/timePositionNaut miles runAvg speedWind from/ knotsBaromVisibWave heightAir tempDewpointWater temp
2016-Aug-25 00:33N 33°45' W 009°03'2712.9
2016-Aug-24 22:26N 34°04' W 008°40'1212.6
2016-Aug-24 21:29N 34°13' W 008°29'2412.5
2016-Aug-24 19:33N 34°30' W 008°08'6912.6
2016-Aug-24 14:06N 35°17' W 007°07'10210.7
2016-Aug-24 04:34N 36°03' W 005°15'  
2016-Aug-21 22:20N 37°43' E 008°56'8212.2
2016-Aug-21 15:33N 37°34' E 010°40'3812.7
2016-Aug-21 12:32N 37°21' E 011°25'1212.3
2016-Aug-21 11:33N 37°15' E 011°38'1212.4
2016-Aug-21 10:33N 37°08' E 011°52'1312.7
2016-Aug-21 09:33N 37°02' E 012°06'1313.2
2016-Aug-21 08:33N 36°58' E 012°21'1313.3
2016-Aug-21 07:33N 36°54' E 012°37'1313.5
2016-Aug-21 06:33N 36°49' E 012°53'1313.1
2016-Aug-21 05:33N 36°45' E 013°08'1312.9
2016-Aug-21 04:33N 36°41' E 013°24'1312.8
2016-Aug-21 03:33N 36°36' E 013°39'1312.7
2016-Aug-21 02:33N 36°32' E 013°54'1312.8
2016-Aug-21 01:33N 36°30' E 014°09'1313.0
2016-Aug-21 00:33N 36°28' E 014°25'1313.3
2016-Aug-20 23:33N 36°27' E 014°42'1413.5
2016-Aug-20 22:33N 36°27' E 014°59'1313.0
2016-Aug-20 21:33N 36°26' E 015°15'3912.9
2016-Aug-20 18:33N 36°23' E 016°03'1413.1
2016-Aug-20 17:28N 36°22' E 016°20'39911.4
2016-Aug-19 06:30N 37°40' E 024°31'14913.0
2016-Aug-18 19:03N 39°56' E 025°49'714.0
2016-Aug-18 18:33N 39°60' E 025°56'14710.3
2016-Aug-18 04:15N 40°57' E 028°54'308 7.0
2016-Aug-16 08:05N 43°50' E 034°38'1013.0
2016-Aug-16 07:19N 43°56' E 034°50'8612.5
2016-Aug-16 00:27N 44°48' E 036°25'2010.3
2016-Aug-15 22:33N 45°07' E 036°33'0 0.3
2016-Aug-15 21:26N 45°07' E 036°33'0 0.0
2016-Aug-15 16:26N 45°07' E 036°33'0 0.0
2016-Aug-15 15:26N 45°07' E 036°33'0 0.0
2016-Aug-15 14:32N 45°07' E 036°33'0 0.0
2016-Aug-15 13:32N 45°07' E 036°33'0 0.0
2016-Aug-15 12:29N 45°07' E 036°33'0 0.0
2016-Aug-15 11:23N 45°07' E 036°33'0 0.0
2016-Aug-15 10:32N 45°07' E 036°33'0 0.0
2016-Aug-15 09:14N 45°07' E 036°33'0 0.0
2016-Aug-15 07:08N 45°07' E 036°33'0 0.0
2016-Aug-15 06:32N 45°07' E 036°33'0 0.0
2016-Aug-15 04:32N 45°07' E 036°33'0 0.0
2016-Aug-15 03:29N 45°07' E 036°33'0 0.0
2016-Aug-15 02:32N 45°07' E 036°33'  

Dump ship's entire track history